Time;durP1;ratioP1;P1;durP2;ratioP2;P2;SDS_P1;SDS_P2;PMS_P1;PMS_P2;Temp;Humidity;BMP_temperature;BMP_pressure;BME280_temperature;BME280_humidity;BME280_pressure;Samples;Min_cycle;Max_cycle;Signal;HPM_P1;HPM_P2
2022/03/09 00:02:01;;;;;;;6.18;5.00;;;;;;;;;;4966866;28;20201;-73
2022/03/09 00:04:29;;;;;;;7.65;5.78;;;;;;;;;;4971408;28;20216;-72
2022/03/09 00:06:57;;;;;;;10.77;5.38;;;;;;;;;;4969708;28;20679;-74
2022/03/09 00:09:24;;;;;;;5.35;4.85;;;;;;;;;;4963923;28;20194;-73
2022/03/09 00:11:51;;;;;;;6.97;5.20;;;;;;;;;;4970171;28;20272;-74
2022/03/09 00:14:18;;;;;;;6.00;5.30;;;;;;;;;;4968053;28;20661;-74
2022/03/09 00:16:45;;;;;;;5.93;5.25;;;;;;;;;;4964163;28;20210;-74
2022/03/09 00:19:12;;;;;;;6.43;5.60;;;;;;;;;;4969160;28;20197;-73
2022/03/09 00:21:39;;;;;;;7.03;5.68;;;;;;;;;;4970546;28;20198;-74
2022/03/09 00:24:08;;;;;;;6.50;5.25;;;;;;;;;;4971918;28;20217;-74
2022/03/09 00:26:35;;;;;;;8.07;5.97;;;;;;;;;;4971040;28;20408;-73
2022/03/09 00:29:02;;;;;;;7.97;5.30;;;;;;;;;;4967301;28;20285;-73
2022/03/09 00:31:29;;;;;;;5.90;5.00;;;;;;;;;;4970175;28;20254;-73
2022/03/09 00:33:56;;;;;;;8.68;6.15;;;;;;;;;;4976041;28;20201;-73
2022/03/09 00:36:23;;;;;;;8.80;6.68;;;;;;;;;;4973248;28;20205;-73
2022/03/09 00:38:50;;;;;;;8.20;5.38;;;;;;;;;;4976012;28;20199;-73
2022/03/09 00:41:19;;;;;;;6.95;4.57;;;;;;;;;;4968370;28;20197;-73
2022/03/09 00:43:46;;;;;;;6.80;5.15;;;;;;;;;;4974051;28;20193;-73
2022/03/09 00:46:13;;;;;;;6.28;5.25;;;;;;;;;;4973572;28;20201;-73
2022/03/09 00:48:40;;;;;;;8.70;5.65;;;;;;;;;;4971579;28;20226;-72
2022/03/09 00:51:07;;;;;;;7.55;6.00;;;;;;;;;;4979447;28;20271;-72
2022/03/09 00:53:34;;;;;;;8.52;5.95;;;;;;;;;;4974853;28;20212;-72
2022/03/09 00:56:01;;;;;;;8.45;5.60;;;;;;;;;;4973592;28;20205;-73
2022/03/09 00:58:30;;;;;;;11.15;6.10;;;;;;;;;;4977913;28;20643;-73
2022/03/09 01:00:57;;;;;;;7.55;6.20;;;;;;;;;;4971792;28;20209;-73
2022/03/09 01:03:24;;;;;;;7.63;6.70;;;;;;;;;;4977267;28;20218;-72
2022/03/09 01:05:51;;;;;;;7.50;6.00;;;;;;;;;;4975146;28;20189;-72
2022/03/09 01:08:18;;;;;;;8.15;5.70;;;;;;;;;;4974131;28;20229;-72
2022/03/09 01:10:45;;;;;;;7.53;6.78;;;;;;;;;;4975141;28;20685;-73
2022/03/09 01:13:12;;;;;;;9.32;5.63;;;;;;;;;;4974554;28;20194;-73
2022/03/09 01:15:41;;;;;;;6.22;5.60;;;;;;;;;;4973756;28;20196;-73
2022/03/09 01:18:08;;;;;;;8.43;6.20;;;;;;;;;;4974282;28;20572;-74
2022/03/09 01:20:35;;;;;;;6.95;6.22;;;;;;;;;;4975011;28;20201;-73
2022/03/09 01:23:02;;;;;;;9.57;6.10;;;;;;;;;;4970924;28;20224;-73
2022/03/09 01:25:29;;;;;;;8.02;6.32;;;;;;;;;;4971085;28;20229;-73
2022/03/09 01:27:56;;;;;;;9.80;6.47;;;;;;;;;;4971508;28;20198;-73
2022/03/09 01:30:23;;;;;;;11.43;6.45;;;;;;;;;;4966000;28;20213;-74
2022/03/09 01:32:51;;;;;;;5.40;4.85;;;;;;;;;;4972470;28;20208;-74
2022/03/09 01:35:18;;;;;;;7.80;6.13;;;;;;;;;;4972262;28;20403;-74
2022/03/09 01:37:46;;;;;;;8.75;6.10;;;;;;;;;;4969911;28;20210;-74
2022/03/09 01:40:13;;;;;;;8.05;7.25;;;;;;;;;;4971600;28;20650;-74
2022/03/09 01:42:40;;;;;;;7.75;6.10;;;;;;;;;;4972537;28;20197;-74
2022/03/09 01:45:09;;;;;;;7.75;6.15;;;;;;;;;;4972106;28;20213;-73
2022/03/09 01:47:36;;;;;;;8.98;6.25;;;;;;;;;;4959483;28;20668;-73
2022/03/09 01:50:05;;;;;;;13.25;7.15;;;;;;;;;;4956068;28;20194;-72
2022/03/09 01:52:35;;;;;;;7.18;6.10;;;;;;;;;;4968607;28;20273;-72
2022/03/09 01:55:02;;;;;;;7.78;5.45;;;;;;;;;;4965891;28;20688;-72
2022/03/09 01:57:30;;;;;;;9.68;6.43;;;;;;;;;;4969736;28;20209;-73
2022/03/09 01:59:58;;;;;;;6.72;5.70;;;;;;;;;;4957993;28;20206;-72
2022/03/09 02:02:25;;;;;;;8.93;6.25;;;;;;;;;;4970386;28;20190;-73
2022/03/09 02:04:53;;;;;;;7.43;6.15;;;;;;;;;;4962289;28;20565;-72
2022/03/09 02:09:41;;;;;;;8.65;5.93;;;;;;;;;;4964848;28;20676;-72
2022/03/09 02:10:08;;;;;;;7.45;5.60;;;;;;;;;;4962745;28;20280;-72
2022/03/09 02:12:35;;;;;;;7.30;6.22;;;;;;;;;;4974246;28;20268;-73
2022/03/09 02:15:02;;;;;;;7.70;6.65;;;;;;;;;;4968673;28;20202;-72
2022/03/09 02:17:30;;;;;;;13.73;6.50;;;;;;;;;;4977558;28;20687;-73
2022/03/09 02:19:58;;;;;;;8.80;5.85;;;;;;;;;;4974205;28;20376;-72
2022/03/09 02:22:31;;;;;;;6.88;5.65;;;;;;;;;;4970875;28;20208;-72
2022/03/09 02:24:58;;;;;;;8.75;5.97;;;;;;;;;;4972705;28;20221;-72
2022/03/09 02:27:25;;;;;;;5.25;4.75;;;;;;;;;;4973163;28;20193;-72
2022/03/09 02:29:53;;;;;;;7.07;5.65;;;;;;;;;;4967718;28;20208;-73
2022/03/09 02:32:20;;;;;;;9.00;5.97;;;;;;;;;;4965485;28;20217;-72
2022/03/09 02:34:48;;;;;;;8.75;5.78;;;;;;;;;;4973378;28;20201;-72
2022/03/09 02:37:15;;;;;;;8.73;5.50;;;;;;;;;;4967718;28;20819;-71
2022/03/09 02:39:44;;;;;;;8.90;5.90;;;;;;;;;;4972758;28;20201;-72
2022/03/09 02:42:11;;;;;;;6.97;6.07;;;;;;;;;;4979406;28;20208;-73
2022/03/09 02:44:42;;;;;;;9.60;5.78;;;;;;;;;;4983423;28;20201;-73
2022/03/09 02:47:10;;;;;;;7.38;5.97;;;;;;;;;;4984394;28;20208;-73
2022/03/09 02:49:37;;;;;;;8.30;6.38;;;;;;;;;;4973282;28;20198;-72
2022/03/09 02:52:04;;;;;;;7.88;6.47;;;;;;;;;;4972017;28;20225;-73
2022/03/09 02:54:31;;;;;;;8.95;7.25;;;;;;;;;;4971883;28;20210;-73
2022/03/09 02:56:59;;;;;;;7.78;6.60;;;;;;;;;;4971457;28;20205;-73
2022/03/09 02:59:26;;;;;;;7.20;6.18;;;;;;;;;;4969347;28;20221;-71
2022/03/09 03:01:53;;;;;;;7.45;6.53;;;;;;;;;;4974272;28;20204;-71
2022/03/09 03:04:21;;;;;;;7.75;6.38;;;;;;;;;;4972196;28;20213;-72
2022/03/09 03:06:48;;;;;;;7.00;6.05;;;;;;;;;;4973164;28;20743;-71
2022/03/09 03:09:15;;;;;;;8.45;6.53;;;;;;;;;;4970909;28;20652;-73
2022/03/09 03:11:42;;;;;;;9.25;6.75;;;;;;;;;;4973536;28;20217;-71
2022/03/09 03:14:10;;;;;;;7.60;6.22;;;;;;;;;;4971690;28;20243;-72
2022/03/09 03:16:38;;;;;;;8.88;6.03;;;;;;;;;;4973852;28;20545;-72
2022/03/09 03:19:05;;;;;;;7.97;5.78;;;;;;;;;;4971733;28;20217;-73
2022/03/09 03:21:32;;;;;;;8.02;6.38;;;;;;;;;;4972479;28;20201;-71
2022/03/09 03:23:59;;;;;;;8.00;5.93;;;;;;;;;;4971634;28;20703;-72
2022/03/09 03:26:28;;;;;;;8.55;5.65;;;;;;;;;;4971614;28;20553;-72
2022/03/09 03:28:55;;;;;;;6.40;5.40;;;;;;;;;;4972161;28;20608;-72
2022/03/09 03:31:24;;;;;;;8.30;6.45;;;;;;;;;;4973147;28;20223;-73
2022/03/09 03:33:51;;;;;;;8.70;6.15;;;;;;;;;;4972576;28;20197;-73
2022/03/09 03:36:18;;;;;;;6.18;5.50;;;;;;;;;;4969975;28;20224;-73
2022/03/09 03:38:45;;;;;;;7.88;5.53;;;;;;;;;;4985909;28;20193;-72
2022/03/09 03:41:12;;;;;;;8.95;5.57;;;;;;;;;;4971464;28;20200;-72
2022/03/09 03:43:39;;;;;;;8.85;5.75;;;;;;;;;;4973118;28;20209;-72
2022/03/09 03:46:06;;;;;;;7.05;5.68;;;;;;;;;;4974652;28;20196;-72
2022/03/09 03:48:35;;;;;;;8.30;5.93;;;;;;;;;;4977162;28;20190;-72
2022/03/09 03:51:02;;;;;;;7.57;6.43;;;;;;;;;;4969233;28;20227;-73
2022/03/09 03:53:29;;;;;;;10.07;5.82;;;;;;;;;;4973286;28;20202;-72
2022/03/09 03:55:56;;;;;;;7.60;6.45;;;;;;;;;;4966782;28;20201;-73
2022/03/09 03:58:23;;;;;;;8.25;5.88;;;;;;;;;;4969366;28;20585;-71
2022/03/09 04:00:50;;;;;;;7.85;5.28;;;;;;;;;;4970904;28;20679;-72
2022/03/09 04:03:17;;;;;;;6.90;5.20;;;;;;;;;;4966540;28;20684;-71
2022/03/09 04:05:45;;;;;;;6.70;6.03;;;;;;;;;;4972420;28;20194;-71
2022/03/09 04:08:13;;;;;;;7.75;5.68;;;;;;;;;;4969218;28;20201;-72
2022/03/09 04:10:40;;;;;;;8.70;6.18;;;;;;;;;;4977634;28;20201;-73
2022/03/09 04:13:07;;;;;;;6.78;4.55;;;;;;;;;;4970824;28;20224;-73
2022/03/09 04:15:34;;;;;;;7.78;5.93;;;;;;;;;;4971160;28;20186;-72
2022/03/09 04:18:01;;;;;;;9.43;5.78;;;;;;;;;;4968810;28;20193;-72
2022/03/09 04:20:28;;;;;;;7.72;5.95;;;;;;;;;;4971545;28;20201;-72
2022/03/09 04:22:56;;;;;;;8.82;6.53;;;;;;;;;;4971071;28;20200;-72
2022/03/09 04:25:26;;;;;;;7.72;4.65;;;;;;;;;;4966167;28;20217;-72
2022/03/09 04:27:53;;;;;;;9.00;6.03;;;;;;;;;;4971133;28;20205;-72
2022/03/09 04:30:20;;;;;;;6.50;5.90;;;;;;;;;;4972172;28;20209;-72
2022/03/09 04:32:47;;;;;;;7.53;5.43;;;;;;;;;;4967945;28;20230;-72
2022/03/09 04:35:15;;;;;;;5.95;4.93;;;;;;;;;;4972427;28;20202;-72
2022/03/09 04:37:42;;;;;;;6.13;5.13;;;;;;;;;;4965238;28;20213;-71
2022/03/09 04:40:12;;;;;;;7.78;5.85;;;;;;;;;;4966900;28;20189;-71
2022/03/09 04:42:39;;;;;;;7.50;5.45;;;;;;;;;;4970350;28;20210;-73
2022/03/09 04:45:06;;;;;;;14.40;6.75;;;;;;;;;;4968022;28;20201;-73
2022/03/09 04:47:33;;;;;;;7.38;5.63;;;;;;;;;;4968782;28;20201;-73
2022/03/09 04:50:01;;;;;;;6.72;5.40;;;;;;;;;;4970465;28;20401;-73
2022/03/09 04:52:28;;;;;;;6.25;5.55;;;;;;;;;;4970254;28;20612;-73
2022/03/09 04:54:55;;;;;;;6.97;5.40;;;;;;;;;;4971562;28;20692;-71
2022/03/09 04:57:23;;;;;;;9.40;6.30;;;;;;;;;;4968155;28;20200;-71
2022/03/09 04:59:50;;;;;;;6.78;5.60;;;;;;;;;;4960214;28;20205;-71
2022/03/09 05:02:17;;;;;;;7.97;5.82;;;;;;;;;;4972962;28;20198;-71
2022/03/09 05:04:44;;;;;;;7.97;5.85;;;;;;;;;;4971153;28;20197;-71
2022/03/09 05:07:11;;;;;;;7.30;5.93;;;;;;;;;;4964859;28;20588;-71
2022/03/09 05:09:38;;;;;;;7.07;5.72;;;;;;;;;;4993131;28;20200;-72
2022/03/09 05:12:06;;;;;;;8.45;5.10;;;;;;;;;;4981925;28;20723;-71
2022/03/09 05:14:35;;;;;;;5.40;4.90;;;;;;;;;;4972420;28;20198;-73
2022/03/09 05:17:02;;;;;;;8.25;5.53;;;;;;;;;;4975834;28;20197;-72
2022/03/09 05:19:29;;;;;;;8.30;6.03;;;;;;;;;;4975887;28;20250;-72
2022/03/09 05:21:56;;;;;;;8.82;5.85;;;;;;;;;;4974242;28;20676;-73
2022/03/09 05:24:23;;;;;;;7.18;5.80;;;;;;;;;;4973289;28;20233;-73
2022/03/09 05:26:50;;;;;;;9.27;5.35;;;;;;;;;;4965425;28;20190;-73
2022/03/09 05:29:17;;;;;;;5.28;4.78;;;;;;;;;;4974232;28;20205;-73
2022/03/09 05:31:46;;;;;;;8.68;6.60;;;;;;;;;;4970642;28;20217;-73
2022/03/09 05:34:13;;;;;;;6.03;5.25;;;;;;;;;;4973915;28;20552;-73
2022/03/09 05:36:40;;;;;;;6.53;5.63;;;;;;;;;;4970087;28;20194;-72
2022/03/09 05:39:07;;;;;;;6.90;5.40;;;;;;;;;;4974082;28;20213;-72
2022/03/09 05:41:35;;;;;;;6.30;5.70;;;;;;;;;;4981862;28;20545;-71
2022/03/09 05:44:02;;;;;;;7.82;6.35;;;;;;;;;;4965268;28;20562;-71
2022/03/09 05:46:30;;;;;;;10.63;7.18;;;;;;;;;;4971790;28;20486;-72
2022/03/09 05:48:58;;;;;;;9.85;5.70;;;;;;;;;;4973526;28;20197;-72
2022/03/09 05:51:26;;;;;;;9.05;6.45;;;;;;;;;;4978466;28;20793;-72
2022/03/09 05:53:53;;;;;;;8.52;6.22;;;;;;;;;;4973151;28;20204;-71
2022/03/09 05:56:20;;;;;;;9.13;6.57;;;;;;;;;;4970835;28;20593;-71
2022/03/09 05:58:47;;;;;;;9.07;5.47;;;;;;;;;;4969956;28;20200;-73
2022/03/09 06:01:14;;;;;;;6.50;5.68;;;;;;;;;;4973599;28;20197;-73
2022/03/09 06:03:41;;;;;;;8.02;5.90;;;;;;;;;;4974403;28;20200;-72
2022/03/09 06:06:09;;;;;;;10.63;7.00;;;;;;;;;;4977776;28;20205;-72
2022/03/09 06:08:36;;;;;;;9.05;5.72;;;;;;;;;;4973080;28;20204;-72
2022/03/09 06:11:03;;;;;;;9.52;6.32;;;;;;;;;;4970430;28;20197;-71
2022/03/09 06:13:30;;;;;;;7.35;5.82;;;;;;;;;;4965615;28;20228;-73
2022/03/09 06:15:58;;;;;;;7.47;6.15;;;;;;;;;;4971008;28;20693;-73
2022/03/09 06:18:25;;;;;;;7.80;5.63;;;;;;;;;;4972606;28;20189;-73
2022/03/09 06:20:52;;;;;;;12.57;6.40;;;;;;;;;;4970804;28;20200;-72
2022/03/09 06:23:21;;;;;;;7.45;6.43;;;;;;;;;;4973320;28;20212;-72
2022/03/09 06:25:48;;;;;;;11.05;6.22;;;;;;;;;;4973594;28;20197;-72
2022/03/09 06:28:16;;;;;;;7.78;5.80;;;;;;;;;;4970448;28;20649;-72
2022/03/09 06:30:43;;;;;;;5.55;4.30;;;;;;;;;;4977279;28;20213;-72
2022/03/09 06:33:10;;;;;;;13.32;5.70;;;;;;;;;;4969750;28;20229;-72
2022/03/09 06:35:37;;;;;;;11.50;5.35;;;;;;;;;;4973593;28;20661;-72
2022/03/09 06:38:05;;;;;;;11.55;7.00;;;;;;;;;;4971767;28;20675;-72
2022/03/09 06:40:33;;;;;;;8.18;5.97;;;;;;;;;;4973038;28;20660;-72
2022/03/09 06:43:01;;;;;;;7.00;5.55;;;;;;;;;;4972080;28;20193;-71
2022/03/09 06:45:28;;;;;;;8.32;5.95;;;;;;;;;;4978620;28;20193;-71
2022/03/09 06:47:55;;;;;;;6.40;4.85;;;;;;;;;;4969023;28;20229;-72
2022/03/09 06:50:22;;;;;;;6.20;4.90;;;;;;;;;;4973149;28;20193;-71
2022/03/09 06:52:49;;;;;;;9.80;5.90;;;;;;;;;;4968671;28;20231;-70
2022/03/09 06:55:16;;;;;;;7.88;5.10;;;;;;;;;;4973175;28;20677;-71
2022/03/09 06:57:45;;;;;;;6.90;5.38;;;;;;;;;;4969482;28;20670;-71
2022/03/09 07:00:14;;;;;;;7.93;6.05;;;;;;;;;;4973169;28;20201;-71
2022/03/09 07:02:41;;;;;;;7.22;5.28;;;;;;;;;;4984384;28;20285;-71
2022/03/09 07:05:09;;;;;;;6.00;5.10;;;;;;;;;;4992154;28;20203;-71
2022/03/09 07:07:36;;;;;;;7.88;5.43;;;;;;;;;;4975055;28;20212;-71
2022/03/09 07:10:03;;;;;;;7.30;5.32;;;;;;;;;;4971221;28;20198;-71
2022/03/09 07:12:30;;;;;;;7.43;5.60;;;;;;;;;;4967314;28;20221;-72
2022/03/09 07:14:58;;;;;;;7.15;6.32;;;;;;;;;;4969911;28;20190;-71
2022/03/09 07:17:25;;;;;;;6.15;5.35;;;;;;;;;;4973922;28;20203;-71
2022/03/09 07:19:52;;;;;;;5.45;4.38;;;;;;;;;;4971735;28;20274;-71
2022/03/09 07:22:20;;;;;;;11.68;7.00;;;;;;;;;;4971051;28;20209;-73
2022/03/09 07:24:47;;;;;;;7.72;5.38;;;;;;;;;;4977191;28;20208;-72
2022/03/09 07:27:14;;;;;;;8.13;5.90;;;;;;;;;;4969686;28;20732;-72
2022/03/09 07:29:41;;;;;;;7.45;5.18;;;;;;;;;;4969493;28;20267;-72
2022/03/09 07:32:14;;;;;;;4.55;4.00;;;;;;;;;;4971483;28;20213;-73
2022/03/09 07:34:41;;;;;;;6.38;4.82;;;;;;;;;;4972668;28;20185;-72
2022/03/09 07:37:08;;;;;;;9.10;4.88;;;;;;;;;;4970999;28;20193;-72
2022/03/09 07:39:36;;;;;;;6.25;4.70;;;;;;;;;;4971217;28;20197;-73
2022/03/09 07:42:04;;;;;;;5.38;4.60;;;;;;;;;;4967425;28;20641;-72
2022/03/09 07:44:31;;;;;;;4.85;4.00;;;;;;;;;;4973447;28;20193;-72
2022/03/09 07:46:58;;;;;;;6.68;4.85;;;;;;;;;;4966626;28;20193;-72
2022/03/09 07:49:27;;;;;;;6.15;4.57;;;;;;;;;;4972546;28;20269;-72
2022/03/09 07:51:54;;;;;;;7.97;4.80;;;;;;;;;;4971375;28;20209;-73
2022/03/09 07:54:21;;;;;;;6.90;5.32;;;;;;;;;;4969434;28;20225;-72
2022/03/09 07:56:49;;;;;;;5.00;3.92;;;;;;;;;;4969243;28;20649;-72
2022/03/09 07:59:16;;;;;;;6.70;4.85;;;;;;;;;;4967252;28;20198;-72
2022/03/09 08:01:44;;;;;;;6.65;4.18;;;;;;;;;;4968699;28;20205;-72
2022/03/09 08:04:11;;;;;;;7.35;4.22;;;;;;;;;;4972086;28;20645;-72
2022/03/09 08:06:40;;;;;;;5.10;4.20;;;;;;;;;;4970062;28;20308;-73
2022/03/09 08:09:07;;;;;;;6.30;5.28;;;;;;;;;;4969565;28;20197;-72
2022/03/09 08:11:35;;;;;;;6.18;4.68;;;;;;;;;;4968531;28;20225;-73
2022/03/09 08:14:02;;;;;;;8.77;4.40;;;;;;;;;;4968947;28;20227;-72
2022/03/09 08:16:29;;;;;;;6.50;4.78;;;;;;;;;;4964541;28;20194;-78
2022/03/09 08:18:56;;;;;;;4.00;3.50;;;;;;;;;;4970764;28;20206;-79
2022/03/09 08:21:23;;;;;;;7.22;4.50;;;;;;;;;;4969938;28;20193;-78
2022/03/09 08:23:51;;;;;;;6.65;4.30;;;;;;;;;;4970826;28;20224;-77
2022/03/09 08:26:18;;;;;;;5.25;4.45;;;;;;;;;;4970161;28;20189;-78
2022/03/09 08:28:46;;;;;;;4.85;4.05;;;;;;;;;;4969261;28;20201;-77
2022/03/09 08:31:13;;;;;;;6.13;4.10;;;;;;;;;;4970548;28;20256;-77
2022/03/09 08:33:41;;;;;;;4.78;3.65;;;;;;;;;;4970569;28;20600;-78
2022/03/09 08:36:08;;;;;;;4.50;3.90;;;;;;;;;;4970650;28;20197;-79
2022/03/09 08:38:35;;;;;;;6.70;4.20;;;;;;;;;;4971729;28;20202;-71
2022/03/09 08:41:03;;;;;;;4.45;4.00;;;;;;;;;;4968375;28;20593;-71
2022/03/09 08:43:31;;;;;;;5.15;4.13;;;;;;;;;;4968525;28;20695;-72
2022/03/09 08:45:58;;;;;;;4.78;4.03;;;;;;;;;;4974049;28;20653;-72
2022/03/09 08:48:26;;;;;;;3.20;2.90;;;;;;;;;;4971982;28;20197;-73
2022/03/09 08:50:53;;;;;;;4.20;3.75;;;;;;;;;;4965865;28;20198;-72
2022/03/09 08:53:20;;;;;;;5.28;3.65;;;;;;;;;;4968624;28;20230;-73
2022/03/09 08:55:48;;;;;;;5.38;3.67;;;;;;;;;;4965602;28;20194;-74
2022/03/09 08:58:16;;;;;;;4.90;3.45;;;;;;;;;;4965632;28;20200;-71
2022/03/09 09:00:44;;;;;;;5.20;3.42;;;;;;;;;;4973311;28;20197;-71
2022/03/09 09:03:11;;;;;;;5.80;4.05;;;;;;;;;;4971831;28;20197;-70
2022/03/09 09:05:38;;;;;;;5.32;3.65;;;;;;;;;;4974611;28;20558;-70
2022/03/09 09:08:06;;;;;;;3.33;2.90;;;;;;;;;;4972798;28;20205;-70
2022/03/09 09:10:33;;;;;;;3.97;3.58;;;;;;;;;;4966513;28;20197;-77
2022/03/09 09:13:00;;;;;;;4.93;4.13;;;;;;;;;;4968964;28;20248;-69
2022/03/09 09:15:29;;;;;;;7.68;3.65;;;;;;;;;;4968890;28;20205;-74
2022/03/09 09:17:59;;;;;;;5.03;3.92;;;;;;;;;;4965570;28;20216;-75
2022/03/09 09:20:26;;;;;;;5.15;3.95;;;;;;;;;;4966951;28;20202;-70
2022/03/09 09:22:54;;;;;;;3.80;3.33;;;;;;;;;;4968908;28;20206;-70
2022/03/09 09:25:23;;;;;;;5.75;4.38;;;;;;;;;;4971310;28;20216;-71
2022/03/09 09:27:50;;;;;;;5.15;3.80;;;;;;;;;;4971554;28;20202;-71
2022/03/09 09:30:17;;;;;;;3.80;3.33;;;;;;;;;;4963850;28;20200;-70
2022/03/09 09:32:45;;;;;;;3.75;3.08;;;;;;;;;;4965901;28;20213;-72
2022/03/09 09:35:13;;;;;;;4.18;3.50;;;;;;;;;;4967488;28;20560;-70
2022/03/09 09:37:41;;;;;;;4.18;3.72;;;;;;;;;;4966348;28;20570;-72
2022/03/09 09:40:09;;;;;;;4.60;4.15;;;;;;;;;;4966637;28;20201;-72
2022/03/09 09:42:37;;;;;;;4.43;3.80;;;;;;;;;;4965096;28;20256;-71
2022/03/09 09:45:04;;;;;;;5.20;4.05;;;;;;;;;;4968475;28;20201;-70
2022/03/09 09:47:32;;;;;;;3.35;3.03;;;;;;;;;;4969376;28;20198;-72
2022/03/09 09:50:02;;;;;;;4.00;3.33;;;;;;;;;;4968991;28;20209;-70
2022/03/09 09:52:29;;;;;;;3.28;2.90;;;;;;;;;;4973308;28;20244;-71
2022/03/09 09:54:59;;;;;;;4.97;3.85;;;;;;;;;;4971776;28;20774;-70
2022/03/09 09:57:28;;;;;;;5.70;3.97;;;;;;;;;;4971839;28;20680;-71
2022/03/09 09:59:55;;;;;;;5.90;4.25;;;;;;;;;;4967100;28;20197;-70
2022/03/09 10:02:22;;;;;;;6.10;4.13;;;;;;;;;;4966199;28;20202;-71
2022/03/09 10:04:50;;;;;;;4.57;3.80;;;;;;;;;;4966249;28;20197;-71
2022/03/09 10:07:18;;;;;;;4.53;3.85;;;;;;;;;;4964647;28;20206;-71
2022/03/09 10:09:46;;;;;;;4.00;3.70;;;;;;;;;;4967029;28;20205;-71
2022/03/09 10:12:15;;;;;;;5.68;3.92;;;;;;;;;;4966567;28;20210;-71
2022/03/09 10:14:46;;;;;;;8.68;4.25;;;;;;;;;;4966923;28;20217;-70
2022/03/09 10:17:14;;;;;;;5.25;3.90;;;;;;;;;;4967654;28;20356;-70
2022/03/09 10:19:41;;;;;;;6.65;3.60;;;;;;;;;;4972209;28;20200;-71
2022/03/09 10:22:29;;;;;;;5.82;4.13;;;;;;;;;;4967344;28;20193;-71
2022/03/09 10:24:59;;;;;;;7.55;5.28;;;;;;;;;;4966443;28;20641;-71
2022/03/09 10:27:33;;;;;;;7.18;4.30;;;;;;;;;;4964247;28;20201;-72
2022/03/09 10:30:00;;;;;;;4.28;3.85;;;;;;;;;;4967039;28;20209;-71
2022/03/09 10:32:42;;;;;;;5.25;3.70;;;;;;;;;;4966601;28;20217;-71
2022/03/09 10:35:09;;;;;;;4.45;3.88;;;;;;;;;;4966356;28;20193;-71
2022/03/09 10:37:39;;;;;;;5.05;3.40;;;;;;;;;;4964715;28;20206;-70
2022/03/09 10:40:11;;;;;;;4.53;3.55;;;;;;;;;;4967666;28;20205;-71
2022/03/09 10:42:38;;;;;;;4.18;3.67;;;;;;;;;;4965758;28;20202;-70
2022/03/09 10:45:08;;;;;;;4.03;3.65;;;;;;;;;;4966343;28;20209;-72
2022/03/09 10:47:35;;;;;;;7.75;4.60;;;;;;;;;;4964387;28;20236;-72
2022/03/09 10:50:13;;;;;;;4.60;3.63;;;;;;;;;;4966898;28;20197;-72
2022/03/09 10:52:44;;;;;;;5.72;4.25;;;;;;;;;;4966265;28;20233;-71
2022/03/09 10:55:23;;;;;;;5.57;4.40;;;;;;;;;;4963436;28;20225;-71
2022/03/09 10:57:50;;;;;;;3.92;3.47;;;;;;;;;;4963937;28;20233;-72
2022/03/09 11:00:18;;;;;;;4.00;3.45;;;;;;;;;;4962228;28;20209;-73
2022/03/09 11:02:49;;;;;;;4.70;3.65;;;;;;;;;;4965205;28;20236;-73
2022/03/09 11:05:17;;;;;;;5.43;4.22;;;;;;;;;;4960515;28;20228;-72
2022/03/09 11:07:44;;;;;;;7.68;4.40;;;;;;;;;;4960359;28;20198;-72
2022/03/09 11:10:13;;;;;;;5.22;3.65;;;;;;;;;;4960586;28;20213;-71
2022/03/09 11:12:41;;;;;;;8.23;4.55;;;;;;;;;;4961889;28;20372;-72
2022/03/09 11:15:12;;;;;;;5.05;4.53;;;;;;;;;;4961865;28;20221;-72
2022/03/09 11:17:39;;;;;;;4.32;3.92;;;;;;;;;;4962084;28;20225;-71
2022/03/09 11:20:07;;;;;;;5.20;3.75;;;;;;;;;;4965554;28;20201;-72
2022/03/09 11:22:34;;;;;;;4.45;3.40;;;;;;;;;;4964795;28;20209;-73
2022/03/09 11:25:01;;;;;;;6.00;4.18;;;;;;;;;;4961375;28;20221;-71
2022/03/09 11:27:31;;;;;;;4.20;3.05;;;;;;;;;;4960073;28;20217;-72
2022/03/09 11:30:19;;;;;;;5.30;3.25;;;;;;;;;;4960448;28;20201;-71
2022/03/09 11:32:46;;;;;;;5.75;3.83;;;;;;;;;;4964657;28;20209;-73
2022/03/09 11:35:28;;;;;;;7.10;5.30;;;;;;;;;;4959799;28;20229;-72
2022/03/09 11:37:55;;;;;;;4.50;3.45;;;;;;;;;;4964216;28;20665;-72
2022/03/09 11:40:22;;;;;;;5.35;3.95;;;;;;;;;;4959912;28;20212;-70
2022/03/09 11:42:49;;;;;;;5.65;4.43;;;;;;;;;;4962574;28;20217;-72
2022/03/09 11:45:40;;;;;;;5.07;3.70;;;;;;;;;;4963381;28;20209;-71
2022/03/09 11:48:14;;;;;;;4.38;3.58;;;;;;;;;;4962298;28;20209;-71
2022/03/09 11:51:01;;;;;;;4.57;3.63;;;;;;;;;;4963401;28;20205;-73
2022/03/09 11:53:40;;;;;;;4.22;3.55;;;;;;;;;;4960262;28;20255;-73
2022/03/09 11:56:38;;;;;;;7.82;5.10;;;;;;;;;;4963646;28;20197;-73
2022/03/09 11:59:08;;;;;;;6.28;3.95;;;;;;;;;;4900574;29;20222;-73
2022/03/09 12:02:03;;;;;;;4.57;3.70;;;;;;;;;;4947189;28;20204;-75
2022/03/09 12:04:48;;;;;;;4.22;3.72;;;;;;;;;;4957797;28;20206;-73
2022/03/09 12:07:35;;;;;;;7.25;3.63;;;;;;;;;;4958769;28;20293;-73
2022/03/09 12:10:03;;;;;;;4.72;4.10;;;;;;;;;;4958030;28;20221;-74
2022/03/09 12:12:31;;;;;;;9.18;4.70;;;;;;;;;;4956642;28;20312;-72
2022/03/09 12:15:00;;;;;;;5.88;4.80;;;;;;;;;;4963854;28;20225;-72
2022/03/09 12:17:30;;;;;;;9.18;5.65;;;;;;;;;;4963056;28;20205;-73
2022/03/09 12:20:15;;;;;;;4.30;3.90;;;;;;;;;;4959939;28;20206;-72
2022/03/09 12:25:43;;;;;;;3.92;3.58;;;;;;;;;;5104271;27;20639;-73
2022/03/09 12:28:32;;;;;;;5.22;4.47;;;;;;;;;;5081864;28;20243;-74
2022/03/09 12:30:59;;;;;;;4.35;3.88;;;;;;;;;;5056320;28;20304;-73
2022/03/09 12:33:27;;;;;;;7.18;4.22;;;;;;;;;;5084196;28;20201;-75
2022/03/09 12:35:55;;;;;;;5.03;3.53;;;;;;;;;;5075110;28;20205;-74
2022/03/09 12:38:22;;;;;;;4.25;3.85;;;;;;;;;;5077265;28;20193;-75
2022/03/09 12:40:51;;;;;;;7.20;5.05;;;;;;;;;;5078617;28;20673;-72
2022/03/09 12:43:18;;;;;;;4.75;4.22;;;;;;;;;;5071681;28;20233;-76
2022/03/09 12:45:51;;;;;;;7.18;4.63;;;;;;;;;;5073819;28;20189;-73
2022/03/09 12:48:19;;;;;;;4.20;3.80;;;;;;;;;;5071970;28;20198;-72
2022/03/09 12:50:46;;;;;;;4.00;3.60;;;;;;;;;;5077820;28;20648;-73
2022/03/09 12:53:13;;;;;;;5.97;4.90;;;;;;;;;;5071654;28;20204;-73
2022/03/09 12:55:40;;;;;;;5.10;4.32;;;;;;;;;;5076819;28;20225;-74
2022/03/09 12:58:09;;;;;;;4.85;4.35;;;;;;;;;;5071431;28;20199;-76
2022/03/09 13:00:36;;;;;;;6.25;4.95;;;;;;;;;;5068048;28;20541;-72
2022/03/09 13:03:04;;;;;;;4.88;4.45;;;;;;;;;;5071536;28;20198;-75
2022/03/09 13:05:32;;;;;;;7.82;4.25;;;;;;;;;;5070296;28;20218;-75
2022/03/09 13:08:00;;;;;;;6.82;6.10;;;;;;;;;;5068674;28;20208;-73
2022/03/09 13:10:29;;;;;;;7.43;4.15;;;;;;;;;;5075073;28;20198;-74
2022/03/09 13:12:58;;;;;;;7.45;4.22;;;;;;;;;;5079249;28;20198;-72
2022/03/09 13:15:36;;;;;;;4.43;3.90;;;;;;;;;;5075254;28;20723;-72
2022/03/09 13:18:04;;;;;;;6.50;4.53;;;;;;;;;;5079238;28;20885;-73
2022/03/09 13:20:31;;;;;;;7.50;3.60;;;;;;;;;;5081458;28;20281;-72
2022/03/09 13:22:58;;;;;;;6.30;4.07;;;;;;;;;;5072310;28;20205;-72
2022/03/09 13:25:30;;;;;;;5.38;3.90;;;;;;;;;;5078691;28;20221;-73
2022/03/09 13:28:01;;;;;;;5.47;3.97;;;;;;;;;;5079640;28;20740;-73
2022/03/09 13:30:28;;;;;;;3.25;2.97;;;;;;;;;;5073810;28;20229;-74
2022/03/09 13:32:57;;;;;;;4.65;4.00;;;;;;;;;;5082830;28;20220;-73
2022/03/09 13:35:25;;;;;;;6.93;4.18;;;;;;;;;;5077840;28;20256;-72
2022/03/09 13:38:01;;;;;;;6.68;4.03;;;;;;;;;;5071478;28;20567;-73
2022/03/09 13:40:28;;;;;;;4.40;4.00;;;;;;;;;;5070301;28;20556;-74
2022/03/09 13:42:58;;;;;;;4.18;3.78;;;;;;;;;;5063187;28;20202;-74
2022/03/09 13:45:29;;;;;;;4.90;3.60;;;;;;;;;;5071506;28;20214;-73
2022/03/09 13:47:59;;;;;;;4.97;4.28;;;;;;;;;;5065079;28;20194;-72
2022/03/09 13:50:27;;;;;;;4.22;3.45;;;;;;;;;;5064080;28;20225;-72
2022/03/09 13:52:55;;;;;;;4.32;3.65;;;;;;;;;;5065406;28;20195;-72
2022/03/09 13:55:23;;;;;;;4.82;4.10;;;;;;;;;;5070268;28;20201;-72
2022/03/09 13:58:00;;;;;;;5.93;3.22;;;;;;;;;;5063109;28;20201;-74
2022/03/09 14:00:30;;;;;;;5.00;3.97;;;;;;;;;;5056806;28;20198;-74
2022/03/09 14:03:07;;;;;;;4.05;3.60;;;;;;;;;;5057320;28;20281;-72
2022/03/09 14:05:35;;;;;;;3.85;3.55;;;;;;;;;;5066466;28;20218;-72
2022/03/09 14:08:02;;;;;;;4.28;3.65;;;;;;;;;;5061002;28;20301;-74
2022/03/09 14:10:32;;;;;;;5.00;4.60;;;;;;;;;;5059734;28;20206;-73
2022/03/09 14:13:07;;;;;;;5.03;4.07;;;;;;;;;;5055916;28;20197;-73
2022/03/09 14:15:34;;;;;;;3.65;3.35;;;;;;;;;;5058472;28;20202;-72
2022/03/09 14:18:03;;;;;;;5.03;3.70;;;;;;;;;;5059552;28;20198;-71
2022/03/09 14:20:30;;;;;;;4.72;3.83;;;;;;;;;;5069019;28;20201;-71
2022/03/09 14:22:57;;;;;;;8.25;4.95;;;;;;;;;;5061512;28;20195;-71
2022/03/09 14:25:27;;;;;;;6.03;4.05;;;;;;;;;;5069562;28;20217;-71
2022/03/09 14:27:54;;;;;;;6.20;4.32;;;;;;;;;;5070100;28;20671;-72
2022/03/09 14:30:22;;;;;;;5.30;4.35;;;;;;;;;;5071134;28;20195;-71
2022/03/09 14:32:50;;;;;;;3.90;3.40;;;;;;;;;;5071031;28;20189;-72
2022/03/09 14:35:18;;;;;;;4.93;4.38;;;;;;;;;;5070056;28;20206;-73
2022/03/09 14:37:52;;;;;;;4.57;3.95;;;;;;;;;;5066715;28;20190;-74
2022/03/09 14:40:19;;;;;;;7.82;4.00;;;;;;;;;;5073979;28;20290;-71
2022/03/09 14:42:47;;;;;;;5.43;4.13;;;;;;;;;;5074453;28;20220;-72
2022/03/09 14:45:15;;;;;;;12.27;4.13;;;;;;;;;;5061338;28;20233;-73
2022/03/09 14:47:42;;;;;;;4.90;3.38;;;;;;;;;;5053525;28;20297;-73
2022/03/09 14:50:09;;;;;;;3.72;3.42;;;;;;;;;;5052183;28;20810;-70
2022/03/09 14:52:38;;;;;;;4.65;3.80;;;;;;;;;;5049814;28;20715;-73
2022/03/09 14:55:05;;;;;;;4.45;3.45;;;;;;;;;;5055970;28;21487;-74